sensor_id;sensor_type;location;lat;lon;timestamp;P1;durP1;ratioP1;P2;durP2;ratioP2
1308;SDS011;647;48.840;9.314;2024-02-21T00:02:20;66.30;;;7.33;;
1308;SDS011;647;48.840;9.314;2024-02-21T00:04:47;63.27;;;7.47;;
1308;SDS011;647;48.840;9.314;2024-02-21T00:07:14;68.10;;;8.47;;
1308;SDS011;647;48.840;9.314;2024-02-21T00:09:41;63.47;;;7.17;;
1308;SDS011;647;48.840;9.314;2024-02-21T00:12:10;66.97;;;7.83;;
1308;SDS011;647;48.840;9.314;2024-02-21T00:14:38;62.90;;;8.47;;
1308;SDS011;647;48.840;9.314;2024-02-21T00:17:06;65.53;;;7.90;;
1308;SDS011;647;48.840;9.314;2024-02-21T00:19:33;62.67;;;7.30;;
1308;SDS011;647;48.840;9.314;2024-02-21T00:22:01;62.70;;;7.43;;
1308;SDS011;647;48.840;9.314;2024-02-21T00:24:28;64.10;;;7.37;;
1308;SDS011;647;48.840;9.314;2024-02-21T00:26:55;61.70;;;7.17;;
1308;SDS011;647;48.840;9.314;2024-02-21T00:29:23;64.93;;;7.70;;
1308;SDS011;647;48.840;9.314;2024-02-21T00:31:50;64.97;;;7.47;;
1308;SDS011;647;48.840;9.314;2024-02-21T00:34:18;66.10;;;7.50;;
1308;SDS011;647;48.840;9.314;2024-02-21T00:36:45;64.30;;;7.87;;
1308;SDS011;647;48.840;9.314;2024-02-21T00:39:12;65.33;;;7.60;;
1308;SDS011;647;48.840;9.314;2024-02-21T00:41:39;63.73;;;8.07;;
1308;SDS011;647;48.840;9.314;2024-02-21T00:44:06;67.97;;;8.00;;
1308;SDS011;647;48.840;9.314;2024-02-21T00:46:36;62.97;;;7.43;;
1308;SDS011;647;48.840;9.314;2024-02-21T00:49:03;65.00;;;8.33;;
1308;SDS011;647;48.840;9.314;2024-02-21T00:51:31;67.40;;;8.07;;
1308;SDS011;647;48.840;9.314;2024-02-21T00:53:58;65.53;;;8.43;;
1308;SDS011;647;48.840;9.314;2024-02-21T00:56:26;62.47;;;6.93;;
1308;SDS011;647;48.840;9.314;2024-02-21T00:58:54;67.03;;;8.03;;
1308;SDS011;647;48.840;9.314;2024-02-21T01:01:22;68.27;;;7.50;;
1308;SDS011;647;48.840;9.314;2024-02-21T01:03:50;63.73;;;7.13;;
1308;SDS011;647;48.840;9.314;2024-02-21T01:06:18;67.10;;;7.70;;
1308;SDS011;647;48.840;9.314;2024-02-21T01:08:45;67.50;;;7.37;;
1308;SDS011;647;48.840;9.314;2024-02-21T01:11:13;62.47;;;6.37;;
1308;SDS011;647;48.840;9.314;2024-02-21T01:13:40;65.90;;;7.97;;
1308;SDS011;647;48.840;9.314;2024-02-21T01:16:07;63.57;;;8.60;;
1308;SDS011;647;48.840;9.314;2024-02-21T01:18:36;62.90;;;7.03;;
1308;SDS011;647;48.840;9.314;2024-02-21T01:21:05;65.40;;;7.80;;
1308;SDS011;647;48.840;9.314;2024-02-21T01:23:32;65.60;;;6.93;;
1308;SDS011;647;48.840;9.314;2024-02-21T01:26:00;61.53;;;6.60;;
1308;SDS011;647;48.840;9.314;2024-02-21T01:28:27;63.37;;;7.43;;
1308;SDS011;647;48.840;9.314;2024-02-21T01:30:54;60.37;;;5.93;;
1308;SDS011;647;48.840;9.314;2024-02-21T01:33:22;61.87;;;6.80;;
1308;SDS011;647;48.840;9.314;2024-02-21T01:35:49;62.77;;;6.93;;
1308;SDS011;647;48.840;9.314;2024-02-21T01:38:17;62.47;;;6.27;;
1308;SDS011;647;48.840;9.314;2024-02-21T01:40:44;64.27;;;6.63;;
1308;SDS011;647;48.840;9.314;2024-02-21T01:43:15;60.87;;;7.00;;
1308;SDS011;647;48.840;9.314;2024-02-21T01:45:42;64.90;;;6.17;;
1308;SDS011;647;48.840;9.314;2024-02-21T01:48:10;61.70;;;5.60;;
1308;SDS011;647;48.840;9.314;2024-02-21T01:50:37;62.63;;;6.87;;
1308;SDS011;647;48.840;9.314;2024-02-21T01:53:04;61.73;;;7.20;;
1308;SDS011;647;48.840;9.314;2024-02-21T01:55:32;60.50;;;6.60;;
1308;SDS011;647;48.840;9.314;2024-02-21T01:57:59;59.27;;;5.90;;
1308;SDS011;647;48.840;9.314;2024-02-21T02:00:27;73.27;;;6.93;;
1308;SDS011;647;48.840;9.314;2024-02-21T02:02:54;65.43;;;7.00;;
1308;SDS011;647;48.840;9.314;2024-02-21T02:05:22;62.80;;;6.80;;
1308;SDS011;647;48.840;9.314;2024-02-21T02:07:49;60.73;;;6.27;;
1308;SDS011;647;48.840;9.314;2024-02-21T02:10:16;62.63;;;6.17;;
1308;SDS011;647;48.840;9.314;2024-02-21T02:12:44;60.40;;;6.50;;
1308;SDS011;647;48.840;9.314;2024-02-21T02:15:11;63.70;;;6.27;;
1308;SDS011;647;48.840;9.314;2024-02-21T02:17:38;61.03;;;6.63;;
1308;SDS011;647;48.840;9.314;2024-02-21T02:20:06;64.80;;;6.50;;
1308;SDS011;647;48.840;9.314;2024-02-21T02:22:33;64.17;;;6.90;;
1308;SDS011;647;48.840;9.314;2024-02-21T02:25:04;63.70;;;5.83;;
1308;SDS011;647;48.840;9.314;2024-02-21T02:27:31;66.80;;;6.57;;
1308;SDS011;647;48.840;9.314;2024-02-21T02:29:58;70.63;;;7.30;;
1308;SDS011;647;48.840;9.314;2024-02-21T02:32:25;65.90;;;6.50;;
1308;SDS011;647;48.840;9.314;2024-02-21T02:34:52;65.40;;;6.70;;
1308;SDS011;647;48.840;9.314;2024-02-21T02:37:20;63.27;;;5.60;;
1308;SDS011;647;48.840;9.314;2024-02-21T02:39:47;61.27;;;5.90;;
1308;SDS011;647;48.840;9.314;2024-02-21T02:42:16;64.03;;;6.90;;
1308;SDS011;647;48.840;9.314;2024-02-21T02:44:43;63.93;;;7.47;;
1308;SDS011;647;48.840;9.314;2024-02-21T02:47:10;61.80;;;6.57;;
1308;SDS011;647;48.840;9.314;2024-02-21T02:49:37;60.20;;;6.00;;
1308;SDS011;647;48.840;9.314;2024-02-21T02:52:04;59.67;;;5.40;;
1308;SDS011;647;48.840;9.314;2024-02-21T02:54:31;60.07;;;5.33;;
1308;SDS011;647;48.840;9.314;2024-02-21T02:56:58;62.63;;;5.03;;
1308;SDS011;647;48.840;9.314;2024-02-21T02:59:27;65.83;;;5.47;;
1308;SDS011;647;48.840;9.314;2024-02-21T03:01:54;64.77;;;5.33;;
1308;SDS011;647;48.840;9.314;2024-02-21T03:04:21;64.30;;;5.30;;
1308;SDS011;647;48.840;9.314;2024-02-21T03:06:48;63.87;;;5.87;;
1308;SDS011;647;48.840;9.314;2024-02-21T03:09:15;64.80;;;5.63;;
1308;SDS011;647;48.840;9.314;2024-02-21T03:11:43;60.60;;;5.40;;
1308;SDS011;647;48.840;9.314;2024-02-21T03:14:10;64.20;;;5.80;;
1308;SDS011;647;48.840;9.314;2024-02-21T03:16:38;58.57;;;5.43;;
1308;SDS011;647;48.840;9.314;2024-02-21T03:19:06;64.97;;;5.40;;
1308;SDS011;647;48.840;9.314;2024-02-21T03:21:33;62.10;;;5.47;;
1308;SDS011;647;48.840;9.314;2024-02-21T03:24:00;62.90;;;5.90;;
1308;SDS011;647;48.840;9.314;2024-02-21T03:26:27;59.10;;;5.10;;
1308;SDS011;647;48.840;9.314;2024-02-21T03:28:54;58.77;;;4.97;;
1308;SDS011;647;48.840;9.314;2024-02-21T03:31:21;61.27;;;5.70;;
1308;SDS011;647;48.840;9.314;2024-02-21T03:33:49;60.63;;;5.00;;
1308;SDS011;647;48.840;9.314;2024-02-21T03:36:17;62.17;;;5.40;;
1308;SDS011;647;48.840;9.314;2024-02-21T03:38:44;60.37;;;5.67;;
1308;SDS011;647;48.840;9.314;2024-02-21T03:41:11;63.47;;;6.07;;
1308;SDS011;647;48.840;9.314;2024-02-21T03:43:38;64.37;;;5.10;;
1308;SDS011;647;48.840;9.314;2024-02-21T03:46:05;72.70;;;5.90;;
1308;SDS011;647;48.840;9.314;2024-02-21T03:48:32;61.10;;;5.40;;
1308;SDS011;647;48.840;9.314;2024-02-21T03:51:01;63.40;;;4.90;;
1308;SDS011;647;48.840;9.314;2024-02-21T03:53:28;64.37;;;4.93;;
1308;SDS011;647;48.840;9.314;2024-02-21T03:55:55;59.90;;;5.77;;
1308;SDS011;647;48.840;9.314;2024-02-21T03:58:27;62.17;;;5.83;;
1308;SDS011;647;48.840;9.314;2024-02-21T04:00:54;58.60;;;4.97;;
1308;SDS011;647;48.840;9.314;2024-02-21T04:03:22;61.73;;;4.80;;
1308;SDS011;647;48.840;9.314;2024-02-21T04:05:49;60.07;;;5.43;;
1308;SDS011;647;48.840;9.314;2024-02-21T04:08:17;65.30;;;6.40;;
1308;SDS011;647;48.840;9.314;2024-02-21T04:10:44;62.90;;;5.57;;
1308;SDS011;647;48.840;9.314;2024-02-21T04:13:11;61.67;;;5.47;;
1308;SDS011;647;48.840;9.314;2024-02-21T04:15:38;59.17;;;4.60;;
1308;SDS011;647;48.840;9.314;2024-02-21T04:18:06;62.00;;;5.03;;
1308;SDS011;647;48.840;9.314;2024-02-21T04:20:33;57.90;;;4.90;;
1308;SDS011;647;48.840;9.314;2024-02-21T04:23:01;67.80;;;5.70;;
1308;SDS011;647;48.840;9.314;2024-02-21T04:25:29;59.00;;;5.50;;
1308;SDS011;647;48.840;9.314;2024-02-21T04:27:56;61.00;;;5.73;;
1308;SDS011;647;48.840;9.314;2024-02-21T04:30:23;60.77;;;6.87;;
1308;SDS011;647;48.840;9.314;2024-02-21T04:32:50;61.57;;;5.37;;
1308;SDS011;647;48.840;9.314;2024-02-21T04:35:17;61.27;;;4.87;;
1308;SDS011;647;48.840;9.314;2024-02-21T04:37:45;62.00;;;6.43;;
1308;SDS011;647;48.840;9.314;2024-02-21T04:40:12;65.93;;;7.00;;
1308;SDS011;647;48.840;9.314;2024-02-21T04:42:41;63.00;;;5.20;;
1308;SDS011;647;48.840;9.314;2024-02-21T04:45:08;60.83;;;5.10;;
1308;SDS011;647;48.840;9.314;2024-02-21T04:47:35;59.37;;;5.20;;
1308;SDS011;647;48.840;9.314;2024-02-21T04:50:03;60.57;;;6.07;;
1308;SDS011;647;48.840;9.314;2024-02-21T04:52:31;60.07;;;5.27;;
1308;SDS011;647;48.840;9.314;2024-02-21T04:54:58;59.47;;;5.00;;
1308;SDS011;647;48.840;9.314;2024-02-21T04:57:25;65.03;;;6.27;;
1308;SDS011;647;48.840;9.314;2024-02-21T04:59:53;63.73;;;5.63;;
1308;SDS011;647;48.840;9.314;2024-02-21T05:02:20;61.43;;;5.17;;
1308;SDS011;647;48.840;9.314;2024-02-21T05:04:49;60.60;;;5.20;;
1308;SDS011;647;48.840;9.314;2024-02-21T05:07:16;61.30;;;5.10;;
1308;SDS011;647;48.840;9.314;2024-02-21T05:09:44;60.97;;;5.70;;
1308;SDS011;647;48.840;9.314;2024-02-21T05:12:11;59.50;;;4.93;;
1308;SDS011;647;48.840;9.314;2024-02-21T05:14:38;63.43;;;5.57;;
1308;SDS011;647;48.840;9.314;2024-02-21T05:17:07;61.57;;;5.63;;
1308;SDS011;647;48.840;9.314;2024-02-21T05:19:34;63.43;;;5.40;;
1308;SDS011;647;48.840;9.314;2024-02-21T05:22:01;62.17;;;6.03;;
1308;SDS011;647;48.840;9.314;2024-02-21T05:24:28;64.30;;;6.23;;
1308;SDS011;647;48.840;9.314;2024-02-21T05:26:55;60.20;;;5.40;;
1308;SDS011;647;48.840;9.314;2024-02-21T05:29:22;62.07;;;5.93;;
1308;SDS011;647;48.840;9.314;2024-02-21T05:31:56;61.20;;;5.87;;
1308;SDS011;647;48.840;9.314;2024-02-21T05:34:25;61.30;;;6.27;;
1308;SDS011;647;48.840;9.314;2024-02-21T05:36:52;61.63;;;6.20;;
1308;SDS011;647;48.840;9.314;2024-02-21T05:39:19;63.27;;;7.20;;
1308;SDS011;647;48.840;9.314;2024-02-21T05:41:48;62.97;;;6.90;;
1308;SDS011;647;48.840;9.314;2024-02-21T05:44:15;59.43;;;6.40;;
1308;SDS011;647;48.840;9.314;2024-02-21T05:46:42;64.30;;;6.67;;
1308;SDS011;647;48.840;9.314;2024-02-21T05:49:10;68.60;;;6.80;;
1308;SDS011;647;48.840;9.314;2024-02-21T05:51:38;61.60;;;6.57;;
1308;SDS011;647;48.840;9.314;2024-02-21T05:54:06;61.00;;;6.97;;
1308;SDS011;647;48.840;9.314;2024-02-21T05:56:33;63.90;;;5.97;;
1308;SDS011;647;48.840;9.314;2024-02-21T05:59:00;62.17;;;6.30;;
1308;SDS011;647;48.840;9.314;2024-02-21T06:01:27;63.00;;;6.63;;
1308;SDS011;647;48.840;9.314;2024-02-21T06:03:54;66.30;;;8.00;;
1308;SDS011;647;48.840;9.314;2024-02-21T06:06:21;66.63;;;7.07;;
1308;SDS011;647;48.840;9.314;2024-02-21T06:08:50;64.43;;;8.20;;
1308;SDS011;647;48.840;9.314;2024-02-21T06:11:17;68.00;;;9.70;;
1308;SDS011;647;48.840;9.314;2024-02-21T06:13:44;62.73;;;6.97;;
1308;SDS011;647;48.840;9.314;2024-02-21T06:16:11;63.87;;;7.00;;
1308;SDS011;647;48.840;9.314;2024-02-21T06:18:38;63.83;;;6.60;;
1308;SDS011;647;48.840;9.314;2024-02-21T06:21:05;63.10;;;6.30;;
1308;SDS011;647;48.840;9.314;2024-02-21T06:23:32;69.20;;;7.73;;
1308;SDS011;647;48.840;9.314;2024-02-21T06:26:01;68.27;;;6.60;;
1308;SDS011;647;48.840;9.314;2024-02-21T06:28:28;63.20;;;6.33;;
1308;SDS011;647;48.840;9.314;2024-02-21T06:30:55;63.40;;;6.43;;
1308;SDS011;647;48.840;9.314;2024-02-21T06:33:22;60.70;;;5.82;;
1308;SDS011;647;48.840;9.314;2024-02-21T06:35:50;62.67;;;6.93;;
1308;SDS011;647;48.840;9.314;2024-02-21T06:38:18;66.97;;;7.03;;
1308;SDS011;647;48.840;9.314;2024-02-21T06:40:45;63.47;;;7.50;;
1308;SDS011;647;48.840;9.314;2024-02-21T06:43:17;62.87;;;6.83;;
1308;SDS011;647;48.840;9.314;2024-02-21T06:45:45;61.10;;;6.40;;
1308;SDS011;647;48.840;9.314;2024-02-21T06:48:15;64.10;;;6.60;;
1308;SDS011;647;48.840;9.314;2024-02-21T06:50:42;62.77;;;5.90;;
1308;SDS011;647;48.840;9.314;2024-02-21T06:53:09;66.53;;;6.63;;
1308;SDS011;647;48.840;9.314;2024-02-21T06:55:37;61.20;;;6.57;;
1308;SDS011;647;48.840;9.314;2024-02-21T06:58:04;59.47;;;5.70;;
1308;SDS011;647;48.840;9.314;2024-02-21T07:00:34;60.90;;;6.10;;
1308;SDS011;647;48.840;9.314;2024-02-21T07:03:02;61.87;;;7.00;;
1308;SDS011;647;48.840;9.314;2024-02-21T07:05:29;63.87;;;6.23;;
1308;SDS011;647;48.840;9.314;2024-02-21T07:07:56;64.90;;;6.97;;
1308;SDS011;647;48.840;9.314;2024-02-21T07:10:23;62.50;;;6.60;;
1308;SDS011;647;48.840;9.314;2024-02-21T07:12:50;68.63;;;6.30;;
1308;SDS011;647;48.840;9.314;2024-02-21T07:15:17;69.40;;;7.43;;
1308;SDS011;647;48.840;9.314;2024-02-21T07:17:46;65.17;;;6.83;;
1308;SDS011;647;48.840;9.314;2024-02-21T07:20:13;61.70;;;7.37;;
1308;SDS011;647;48.840;9.314;2024-02-21T07:22:40;68.47;;;7.07;;
1308;SDS011;647;48.840;9.314;2024-02-21T07:25:07;62.77;;;7.47;;
1308;SDS011;647;48.840;9.314;2024-02-21T07:27:35;65.77;;;7.83;;
1308;SDS011;647;48.840;9.314;2024-02-21T07:30:02;61.07;;;6.90;;
1308;SDS011;647;48.840;9.314;2024-02-21T07:32:29;64.97;;;6.67;;
1308;SDS011;647;48.840;9.314;2024-02-21T07:34:58;63.17;;;6.70;;
1308;SDS011;647;48.840;9.314;2024-02-21T07:37:25;64.10;;;7.00;;
1308;SDS011;647;48.840;9.314;2024-02-21T07:39:52;61.63;;;6.53;;
1308;SDS011;647;48.840;9.314;2024-02-21T07:42:19;63.77;;;6.90;;
1308;SDS011;647;48.840;9.314;2024-02-21T07:44:46;63.27;;;6.67;;
1308;SDS011;647;48.840;9.314;2024-02-21T07:47:13;63.90;;;5.47;;
1308;SDS011;647;48.840;9.314;2024-02-21T07:49:41;62.77;;;6.20;;
1308;SDS011;647;48.840;9.314;2024-02-21T07:52:09;68.23;;;6.53;;
1308;SDS011;647;48.840;9.314;2024-02-21T07:54:36;61.50;;;5.17;;
1308;SDS011;647;48.840;9.314;2024-02-21T07:57:03;61.00;;;5.10;;
1308;SDS011;647;48.840;9.314;2024-02-21T07:59:31;61.83;;;5.13;;
1308;SDS011;647;48.840;9.314;2024-02-21T08:01:58;59.37;;;4.73;;
1308;SDS011;647;48.840;9.314;2024-02-21T08:04:25;62.53;;;5.30;;
1308;SDS011;647;48.840;9.314;2024-02-21T08:06:52;60.60;;;4.83;;
1308;SDS011;647;48.840;9.314;2024-02-21T08:09:22;62.20;;;5.60;;
1308;SDS011;647;48.840;9.314;2024-02-21T08:11:49;60.73;;;4.80;;
1308;SDS011;647;48.840;9.314;2024-02-21T08:14:16;64.60;;;5.43;;
1308;SDS011;647;48.840;9.314;2024-02-21T08:16:43;62.43;;;5.37;;
1308;SDS011;647;48.840;9.314;2024-02-21T08:19:11;64.00;;;5.87;;
1308;SDS011;647;48.840;9.314;2024-02-21T08:21:38;60.00;;;5.00;;
1308;SDS011;647;48.840;9.314;2024-02-21T08:24:05;62.37;;;5.07;;
1308;SDS011;647;48.840;9.314;2024-02-21T08:26:33;65.57;;;5.10;;
1308;SDS011;647;48.840;9.314;2024-02-21T08:29:01;59.97;;;5.17;;
1308;SDS011;647;48.840;9.314;2024-02-21T08:31:28;61.57;;;4.93;;
1308;SDS011;647;48.840;9.314;2024-02-21T08:33:57;60.17;;;4.50;;
1308;SDS011;647;48.840;9.314;2024-02-21T08:36:27;61.43;;;4.60;;
1308;SDS011;647;48.840;9.314;2024-02-21T08:38:55;63.13;;;5.40;;
1308;SDS011;647;48.840;9.314;2024-02-21T08:41:23;60.93;;;4.33;;
1308;SDS011;647;48.840;9.314;2024-02-21T08:43:51;62.37;;;4.27;;
1308;SDS011;647;48.840;9.314;2024-02-21T08:46:19;62.37;;;3.80;;
1308;SDS011;647;48.840;9.314;2024-02-21T08:48:47;58.50;;;3.40;;
1308;SDS011;647;48.840;9.314;2024-02-21T08:51:14;59.57;;;4.30;;
1308;SDS011;647;48.840;9.314;2024-02-21T08:53:41;61.50;;;4.27;;
1308;SDS011;647;48.840;9.314;2024-02-21T08:56:08;60.17;;;4.00;;
1308;SDS011;647;48.840;9.314;2024-02-21T08:58:35;64.60;;;4.80;;
1308;SDS011;647;48.840;9.314;2024-02-21T09:01:04;59.10;;;3.90;;
1308;SDS011;647;48.840;9.314;2024-02-21T09:03:31;59.80;;;3.90;;
1308;SDS011;647;48.840;9.314;2024-02-21T09:05:59;58.67;;;4.10;;
1308;SDS011;647;48.840;9.314;2024-02-21T09:08:26;56.97;;;3.60;;
1308;SDS011;647;48.840;9.314;2024-02-21T09:10:53;59.47;;;3.50;;
1308;SDS011;647;48.840;9.314;2024-02-21T09:13:20;59.53;;;3.70;;
1308;SDS011;647;48.840;9.314;2024-02-21T09:15:48;62.70;;;3.97;;
1308;SDS011;647;48.840;9.314;2024-02-21T09:18:17;57.80;;;3.80;;
1308;SDS011;647;48.840;9.314;2024-02-21T09:20:44;57.50;;;3.70;;
1308;SDS011;647;48.840;9.314;2024-02-21T09:23:12;61.43;;;3.43;;
1308;SDS011;647;48.840;9.314;2024-02-21T09:25:39;58.70;;;3.60;;
1308;SDS011;647;48.840;9.314;2024-02-21T09:28:06;66.33;;;4.30;;
1308;SDS011;647;48.840;9.314;2024-02-21T09:30:33;59.87;;;4.03;;
1308;SDS011;647;48.840;9.314;2024-02-21T09:33:00;59.33;;;3.63;;
1308;SDS011;647;48.840;9.314;2024-02-21T09:35:28;58.70;;;3.73;;
1308;SDS011;647;48.840;9.314;2024-02-21T09:37:55;58.97;;;4.20;;
1308;SDS011;647;48.840;9.314;2024-02-21T09:40:23;60.13;;;4.07;;
1308;SDS011;647;48.840;9.314;2024-02-21T09:42:53;59.10;;;4.13;;
1308;SDS011;647;48.840;9.314;2024-02-21T09:45:24;60.47;;;3.70;;
1308;SDS011;647;48.840;9.314;2024-02-21T09:47:56;57.60;;;3.60;;
1308;SDS011;647;48.840;9.314;2024-02-21T09:50:29;57.67;;;3.93;;
1308;SDS011;647;48.840;9.314;2024-02-21T09:52:57;64.17;;;5.23;;
1308;SDS011;647;48.840;9.314;2024-02-21T09:55:27;58.87;;;3.50;;
1308;SDS011;647;48.840;9.314;2024-02-21T09:57:54;58.87;;;3.57;;
1308;SDS011;647;48.840;9.314;2024-02-21T10:00:21;62.07;;;4.70;;
1308;SDS011;647;48.840;9.314;2024-02-21T10:02:49;62.37;;;3.73;;
1308;SDS011;647;48.840;9.314;2024-02-21T10:05:16;59.70;;;3.93;;
1308;SDS011;647;48.840;9.314;2024-02-21T10:07:44;60.70;;;3.60;;
1308;SDS011;647;48.840;9.314;2024-02-21T10:10:11;59.00;;;4.07;;
1308;SDS011;647;48.840;9.314;2024-02-21T10:12:47;59.80;;;4.80;;
1308;SDS011;647;48.840;9.314;2024-02-21T10:15:19;61.77;;;4.17;;
1308;SDS011;647;48.840;9.314;2024-02-21T10:17:46;59.37;;;3.40;;
1308;SDS011;647;48.840;9.314;2024-02-21T10:20:13;60.23;;;3.80;;
1308;SDS011;647;48.840;9.314;2024-02-21T10:22:41;61.23;;;4.73;;
1308;SDS011;647;48.840;9.314;2024-02-21T10:25:10;61.57;;;3.80;;
1308;SDS011;647;48.840;9.314;2024-02-21T10:27:37;61.37;;;3.90;;
1308;SDS011;647;48.840;9.314;2024-02-21T10:30:05;63.60;;;3.80;;
1308;SDS011;647;48.840;9.314;2024-02-21T10:32:32;58.63;;;3.73;;
1308;SDS011;647;48.840;9.314;2024-02-21T10:35:03;58.73;;;3.83;;
1308;SDS011;647;48.840;9.314;2024-02-21T10:37:30;59.97;;;3.70;;
1308;SDS011;647;48.840;9.314;2024-02-21T10:39:57;59.40;;;3.67;;
1308;SDS011;647;48.840;9.314;2024-02-21T10:42:28;58.70;;;3.70;;
1308;SDS011;647;48.840;9.314;2024-02-21T10:44:59;60.37;;;3.90;;
1308;SDS011;647;48.840;9.314;2024-02-21T10:47:29;59.60;;;3.60;;
1308;SDS011;647;48.840;9.314;2024-02-21T10:49:59;59.67;;;3.80;;
1308;SDS011;647;48.840;9.314;2024-02-21T10:52:31;62.03;;;3.70;;
1308;SDS011;647;48.840;9.314;2024-02-21T10:54:59;58.40;;;3.43;;
1308;SDS011;647;48.840;9.314;2024-02-21T10:57:32;62.07;;;3.77;;
1308;SDS011;647;48.840;9.314;2024-02-21T10:59:59;57.80;;;3.60;;
1308;SDS011;647;48.840;9.314;2024-02-21T11:02:28;57.70;;;3.20;;
1308;SDS011;647;48.840;9.314;2024-02-21T11:04:56;58.90;;;3.70;;
1308;SDS011;647;48.840;9.314;2024-02-21T11:07:24;59.70;;;3.57;;
1308;SDS011;647;48.840;9.314;2024-02-21T11:09:51;58.97;;;2.90;;
1308;SDS011;647;48.840;9.314;2024-02-21T11:12:20;64.27;;;4.07;;
1308;SDS011;647;48.840;9.314;2024-02-21T11:14:48;57.93;;;3.70;;
1308;SDS011;647;48.840;9.314;2024-02-21T11:17:15;57.80;;;3.73;;
1308;SDS011;647;48.840;9.314;2024-02-21T11:19:43;57.80;;;3.67;;
1308;SDS011;647;48.840;9.314;2024-02-21T11:22:14;59.47;;;3.53;;
1308;SDS011;647;48.840;9.314;2024-02-21T11:24:41;59.20;;;3.50;;
1308;SDS011;647;48.840;9.314;2024-02-21T11:27:09;57.77;;;3.30;;
1308;SDS011;647;48.840;9.314;2024-02-21T11:29:39;59.40;;;3.17;;
1308;SDS011;647;48.840;9.314;2024-02-21T11:32:10;58.70;;;2.97;;
1308;SDS011;647;48.840;9.314;2024-02-21T11:34:37;61.63;;;4.30;;
1308;SDS011;647;48.840;9.314;2024-02-21T11:37:12;61.20;;;3.10;;
1308;SDS011;647;48.840;9.314;2024-02-21T11:39:40;57.07;;;2.83;;
1308;SDS011;647;48.840;9.314;2024-02-21T11:42:08;62.90;;;3.40;;
1308;SDS011;647;48.840;9.314;2024-02-21T11:44:36;58.20;;;3.40;;
1308;SDS011;647;48.840;9.314;2024-02-21T11:47:04;60.40;;;3.83;;
1308;SDS011;647;48.840;9.314;2024-02-21T11:49:35;56.40;;;3.03;;
1308;SDS011;647;48.840;9.314;2024-02-21T11:52:03;59.30;;;3.27;;
1308;SDS011;647;48.840;9.314;2024-02-21T11:54:30;57.17;;;2.90;;
1308;SDS011;647;48.840;9.314;2024-02-21T11:56:58;61.67;;;3.47;;
1308;SDS011;647;48.840;9.314;2024-02-21T11:59:25;58.50;;;3.23;;
1308;SDS011;647;48.840;9.314;2024-02-21T12:01:52;58.20;;;3.27;;
1308;SDS011;647;48.840;9.314;2024-02-21T12:04:20;58.60;;;3.07;;
1308;SDS011;647;48.840;9.314;2024-02-21T12:06:50;57.20;;;2.93;;
1308;SDS011;647;48.840;9.314;2024-02-21T12:09:19;59.50;;;3.47;;
1308;SDS011;647;48.840;9.314;2024-02-21T12:11:56;58.33;;;3.80;;
1308;SDS011;647;48.840;9.314;2024-02-21T12:14:24;58.40;;;2.93;;
1308;SDS011;647;48.840;9.314;2024-02-21T12:16:51;58.00;;;3.20;;
1308;SDS011;647;48.840;9.314;2024-02-21T12:19:18;60.53;;;3.10;;
1308;SDS011;647;48.840;9.314;2024-02-21T12:21:47;58.73;;;3.20;;
1308;SDS011;647;48.840;9.314;2024-02-21T12:24:16;59.33;;;2.90;;
1308;SDS011;647;48.840;9.314;2024-02-21T12:26:45;57.17;;;3.10;;
1308;SDS011;647;48.840;9.314;2024-02-21T12:29:12;58.07;;;2.90;;
1308;SDS011;647;48.840;9.314;2024-02-21T12:31:39;58.20;;;3.10;;
1308;SDS011;647;48.840;9.314;2024-02-21T12:34:06;58.90;;;3.97;;
1308;SDS011;647;48.840;9.314;2024-02-21T12:36:35;56.17;;;2.97;;
1308;SDS011;647;48.840;9.314;2024-02-21T12:39:03;57.67;;;2.80;;
1308;SDS011;647;48.840;9.314;2024-02-21T12:41:31;57.17;;;2.90;;
1308;SDS011;647;48.840;9.314;2024-02-21T12:43:58;57.30;;;3.00;;
1308;SDS011;647;48.840;9.314;2024-02-21T12:46:25;56.37;;;2.60;;
1308;SDS011;647;48.840;9.314;2024-02-21T12:48:52;56.30;;;2.57;;
1308;SDS011;647;48.840;9.314;2024-02-21T12:51:19;58.03;;;2.67;;
1308;SDS011;647;48.840;9.314;2024-02-21T12:53:47;58.70;;;2.90;;
1308;SDS011;647;48.840;9.314;2024-02-21T12:56:14;56.70;;;2.60;;
1308;SDS011;647;48.840;9.314;2024-02-21T12:58:43;58.33;;;2.70;;
1308;SDS011;647;48.840;9.314;2024-02-21T13:01:10;56.33;;;2.83;;
1308;SDS011;647;48.840;9.314;2024-02-21T13:03:37;55.77;;;2.50;;
1308;SDS011;647;48.840;9.314;2024-02-21T13:06:05;57.57;;;2.60;;
1308;SDS011;647;48.840;9.314;2024-02-21T13:08:33;56.97;;;2.63;;
1308;SDS011;647;48.840;9.314;2024-02-21T13:11:00;58.30;;;3.00;;
1308;SDS011;647;48.840;9.314;2024-02-21T13:13:28;56.17;;;2.70;;
1308;SDS011;647;48.840;9.314;2024-02-21T13:15:56;55.90;;;2.50;;
1308;SDS011;647;48.840;9.314;2024-02-21T13:18:24;57.67;;;2.80;;
1308;SDS011;647;48.840;9.314;2024-02-21T13:20:51;58.10;;;2.80;;
1308;SDS011;647;48.840;9.314;2024-02-21T13:23:19;57.40;;;2.57;;
1308;SDS011;647;48.840;9.314;2024-02-21T13:25:47;57.80;;;2.87;;
1308;SDS011;647;48.840;9.314;2024-02-21T13:28:15;57.70;;;2.60;;
1308;SDS011;647;48.840;9.314;2024-02-21T13:30:42;57.60;;;2.80;;
1308;SDS011;647;48.840;9.314;2024-02-21T13:33:12;57.17;;;2.73;;
1308;SDS011;647;48.840;9.314;2024-02-21T13:35:40;56.87;;;2.63;;
1308;SDS011;647;48.840;9.314;2024-02-21T13:38:07;58.77;;;2.50;;
1308;SDS011;647;48.840;9.314;2024-02-21T13:40:35;56.53;;;3.00;;
1308;SDS011;647;48.840;9.314;2024-02-21T13:43:02;56.10;;;2.47;;
1308;SDS011;647;48.840;9.314;2024-02-21T13:45:29;57.30;;;2.90;;
1308;SDS011;647;48.840;9.314;2024-02-21T13:47:56;57.70;;;2.63;;
1308;SDS011;647;48.840;9.314;2024-02-21T13:50:29;56.27;;;2.63;;
1308;SDS011;647;48.840;9.314;2024-02-21T13:52:57;58.10;;;2.77;;
1308;SDS011;647;48.840;9.314;2024-02-21T13:55:24;56.30;;;2.60;;
1308;SDS011;647;48.840;9.314;2024-02-21T13:57:51;56.53;;;2.63;;
1308;SDS011;647;48.840;9.314;2024-02-21T14:00:19;55.77;;;2.37;;
1308;SDS011;647;48.840;9.314;2024-02-21T14:02:46;56.07;;;2.33;;
1308;SDS011;647;48.840;9.314;2024-02-21T14:05:13;57.77;;;2.90;;
1308;SDS011;647;48.840;9.314;2024-02-21T14:07:42;59.13;;;3.63;;
1308;SDS011;647;48.840;9.314;2024-02-21T14:10:09;56.07;;;2.37;;
1308;SDS011;647;48.840;9.314;2024-02-21T14:12:36;56.67;;;2.60;;
1308;SDS011;647;48.840;9.314;2024-02-21T14:15:05;56.80;;;2.70;;
1308;SDS011;647;48.840;9.314;2024-02-21T14:17:34;57.40;;;2.80;;
1308;SDS011;647;48.840;9.314;2024-02-21T14:20:01;58.07;;;2.53;;
1308;SDS011;647;48.840;9.314;2024-02-21T14:22:29;55.80;;;2.10;;
1308;SDS011;647;48.840;9.314;2024-02-21T14:24:58;56.83;;;2.50;;
1308;SDS011;647;48.840;9.314;2024-02-21T14:27:25;58.07;;;2.67;;
1308;SDS011;647;48.840;9.314;2024-02-21T14:29:53;56.00;;;2.30;;
1308;SDS011;647;48.840;9.314;2024-02-21T14:32:20;57.77;;;2.90;;
1308;SDS011;647;48.840;9.314;2024-02-21T14:34:47;58.83;;;2.90;;
1308;SDS011;647;48.840;9.314;2024-02-21T14:37:15;55.83;;;2.30;;
1308;SDS011;647;48.840;9.314;2024-02-21T14:39:42;58.57;;;2.50;;
1308;SDS011;647;48.840;9.314;2024-02-21T14:42:10;56.97;;;2.50;;
1308;SDS011;647;48.840;9.314;2024-02-21T14:44:37;61.30;;;2.80;;
1308;SDS011;647;48.840;9.314;2024-02-21T14:47:06;56.70;;;2.60;;
1308;SDS011;647;48.840;9.314;2024-02-21T14:49:33;57.07;;;2.70;;
1308;SDS011;647;48.840;9.314;2024-02-21T14:52:00;57.87;;;2.30;;
1308;SDS011;647;48.840;9.314;2024-02-21T14:54:28;56.80;;;2.93;;
1308;SDS011;647;48.840;9.314;2024-02-21T14:56:55;59.40;;;3.50;;
1308;SDS011;647;48.840;9.314;2024-02-21T14:59:23;57.53;;;2.50;;
1308;SDS011;647;48.840;9.314;2024-02-21T15:01:51;57.03;;;2.87;;
1308;SDS011;647;48.840;9.314;2024-02-21T15:04:18;58.73;;;3.57;;
1308;SDS011;647;48.840;9.314;2024-02-21T15:06:45;57.97;;;2.83;;
1308;SDS011;647;48.840;9.314;2024-02-21T15:09:13;56.60;;;2.57;;
1308;SDS011;647;48.840;9.314;2024-02-21T15:11:40;57.80;;;2.60;;
1308;SDS011;647;48.840;9.314;2024-02-21T15:14:08;55.93;;;2.50;;
1308;SDS011;647;48.840;9.314;2024-02-21T15:16:37;56.60;;;2.60;;
1308;SDS011;647;48.840;9.314;2024-02-21T15:19:04;57.30;;;2.50;;